Time;durP1;ratioP1;P1;durP2;ratioP2;P2;SDS_P1;SDS_P2;PMS_P1;PMS_P2;Temp;Humidity;BMP_temperature;BMP_pressure;BME280_temperature;BME280_humidity;BME280_pressure;Samples;Min_cycle;Max_cycle;Signal;HPM_P1;HPM_P2
2022/03/25 00:00:44;;;;;;;22.33;20.37;;;7.10;72.40;;;;;;5046623;28;21196;-81
2022/03/25 00:03:11;;;;;;;22.23;20.43;;;7.50;72.20;;;;;;5042519;28;20726;-81
2022/03/25 00:05:39;;;;;;;22.53;20.20;;;7.30;72.80;;;;;;5046128;28;20637;-81
2022/03/25 00:08:06;;;;;;;23.63;21.53;;;6.90;73.10;;;;;;5048239;28;20625;-81
2022/03/25 00:10:33;;;;;;;22.77;20.77;;;7.20;73.50;;;;;;5053152;28;20661;-80
2022/03/25 00:13:00;;;;;;;22.60;20.60;;;6.90;73.30;;;;;;5045624;28;20629;-81
2022/03/25 00:15:27;;;;;;;22.80;20.67;;;7.00;73.40;;;;;;5046029;28;21057;-80
2022/03/25 00:17:54;;;;;;;24.13;20.93;;;7.30;75.30;;;;;;5047541;28;20626;-80
2022/03/25 00:20:20;;;;;;;22.10;20.00;;;6.70;77.20;;;;;;5047491;28;21125;-80
2022/03/25 00:22:49;;;;;;;22.93;20.93;;;7.10;76.60;;;;;;5049005;28;20630;-80
2022/03/25 00:25:16;;;;;;;22.13;20.03;;;7.00;76.40;;;;;;5050311;28;20666;-80
2022/03/25 00:27:43;;;;;;;26.13;23.63;;;7.10;77.20;;;;;;5049773;28;20620;-81
2022/03/25 00:30:11;;;;;;;23.50;21.43;;;6.60;78.40;;;;;;5045719;28;21007;-81
2022/03/25 00:32:37;;;;;;;23.20;21.10;;;6.90;81.40;;;;;;5047078;28;20617;-80
2022/03/25 00:35:05;;;;;;;24.30;22.00;;;6.80;83.60;;;;;;5043625;28;20633;-79
2022/03/25 00:37:32;;;;;;;23.63;21.63;;;6.80;83.40;;;;;;5049245;28;20632;-79
2022/03/25 00:40:00;;;;;;;23.37;21.37;;;6.70;84.40;;;;;;5045633;28;20687;-79
2022/03/25 00:42:27;;;;;;;23.20;20.77;;;6.90;85.00;;;;;;5051484;28;20988;-80
2022/03/25 00:44:55;;;;;;;22.43;20.40;;;6.60;85.30;;;;;;5048941;28;20685;-81
2022/03/25 00:47:23;;;;;;;23.60;21.57;;;6.80;86.90;;;;;;5050683;28;20638;-79
2022/03/25 00:49:50;;;;;;;22.47;20.67;;;6.60;88.60;;;;;;5043142;28;21054;-79
2022/03/25 00:52:17;;;;;;;23.13;20.90;;;6.20;90.20;;;;;;5054185;28;20610;-80
2022/03/25 00:54:44;;;;;;;22.73;20.83;;;6.20;90.60;;;;;;5052615;28;20724;-79
2022/03/25 00:57:12;;;;;;;22.53;20.43;;;6.60;91.10;;;;;;5050381;28;20626;-80
2022/03/25 00:59:39;;;;;;;23.03;20.70;;;6.20;91.00;;;;;;5049458;28;20653;-79
2022/03/25 01:02:05;;;;;;;23.90;21.80;;;6.00;91.40;;;;;;5050901;28;20986;-79
2022/03/25 01:04:32;;;;;;;24.40;22.03;;;6.50;92.70;;;;;;5048377;28;20684;-79
2022/03/25 01:06:59;;;;;;;21.20;19.30;;;6.30;93.50;;;;;;5049389;28;20624;-81
2022/03/25 01:09:26;;;;;;;21.53;19.73;;;5.80;93.80;;;;;;5044608;28;21232;-78
2022/03/25 01:11:53;;;;;;;22.13;20.23;;;6.00;94.30;;;;;;5039847;28;20632;-79
2022/03/25 01:14:21;;;;;;;22.50;20.40;;;6.20;95.40;;;;;;5050436;28;20616;-80
2022/03/25 01:16:48;;;;;;;23.00;21.00;;;5.90;95.70;;;;;;5050030;28;20620;-80
2022/03/25 01:19:15;;;;;;;22.33;20.23;;;5.60;95.90;;;;;;5048197;28;20641;-79
2022/03/25 01:21:42;;;;;;;22.50;20.37;;;6.20;96.10;;;;;;5049865;28;20642;-79
2022/03/25 01:24:09;;;;;;;22.90;20.93;;;6.00;96.10;;;;;;5049225;28;20747;-79
2022/03/25 01:26:36;;;;;;;23.07;21.03;;;5.80;96.50;;;;;;5050294;28;20640;-81
2022/03/25 01:29:04;;;;;;;23.50;21.50;;;6.00;96.90;;;;;;5053408;28;20648;-79
2022/03/25 01:31:34;;;;;;;22.90;20.80;;;5.40;96.50;;;;;;5049227;28;20664;-81
2022/03/25 01:34:01;;;;;;;22.33;20.13;;;5.80;96.90;;;;;;5049151;28;21070;-81
2022/03/25 01:36:28;;;;;;;23.10;20.87;;;5.90;97.90;;;;;;5048176;28;20633;-80
2022/03/25 01:38:55;;;;;;;22.10;20.20;;;5.90;98.10;;;;;;5049644;28;20629;-80
2022/03/25 01:41:21;;;;;;;22.23;20.33;;;5.40;98.00;;;;;;5049807;28;21141;-81
2022/03/25 01:43:54;;;;;;;24.50;21.50;;;5.40;98.30;;;;;;5051204;28;20706;-80
2022/03/25 01:46:21;;;;;;;22.50;20.23;;;5.80;99.30;;;;;;5047844;28;20637;-81
2022/03/25 01:48:49;;;;;;;23.37;21.17;;;5.70;99.90;;;;;;5050051;28;20633;-81
2022/03/25 01:51:20;;;;;;;23.00;20.70;;;5.50;99.90;;;;;;5052865;28;20649;-81
2022/03/25 01:53:48;;;;;;;23.07;20.87;;;5.20;99.90;;;;;;5049578;28;20633;-81
2022/03/25 01:56:23;;;;;;;22.57;20.67;;;5.60;99.90;;;;;;5055424;28;20629;-80
2022/03/25 01:58:50;;;;;;;22.27;20.07;;;5.70;99.90;;;;;;5050659;28;20623;-81
2022/03/25 02:01:18;;;;;;;24.17;21.90;;;5.50;99.90;;;;;;5050973;28;21100;-81
2022/03/25 02:03:45;;;;;;;22.27;20.37;;;5.50;99.90;;;;;;5048924;28;20642;-81
2022/03/25 02:06:13;;;;;;;22.77;20.87;;;5.30;99.90;;;;;;5047235;28;20682;-81
2022/03/25 02:08:40;;;;;;;22.00;20.07;;;5.60;99.90;;;;;;5056067;28;21175;-80
2022/03/25 02:11:08;;;;;;;21.27;19.30;;;5.40;99.90;;;;;;5048510;28;20712;-81
2022/03/25 02:13:35;;;;;;;22.50;20.50;;;5.30;99.90;;;;;;5050057;28;20704;-81
2022/03/25 02:16:02;;;;;;;22.77;20.60;;;5.30;99.90;;;;;;5050032;28;20605;-80
2022/03/25 02:18:29;;;;;;;23.17;21.10;;;5.40;99.90;;;;;;5034120;28;21223;-81
2022/03/25 02:20:55;;;;;;;23.70;21.60;;;5.00;99.90;;;;;;5049294;28;20644;-81
2022/03/25 02:23:24;;;;;;;20.50;18.77;;;5.20;99.90;;;;;;5051445;28;21210;-80
2022/03/25 02:25:53;;;;;;;22.50;20.50;;;5.00;99.90;;;;;;5051120;28;21331;-80
2022/03/25 02:28:20;;;;;;;22.70;20.70;;;4.70;99.90;;;;;;5049598;28;20649;-80
2022/03/25 02:30:47;;;;;;;24.50;22.17;;;4.90;99.90;;;;;;5051047;28;20649;-80
2022/03/25 02:33:14;;;;;;;22.67;20.50;;;5.10;99.90;;;;;;5049450;28;21180;-80
2022/03/25 02:35:44;;;;;;;22.33;20.30;;;5.00;99.90;;;;;;5049964;28;20629;-80
2022/03/25 02:38:12;;;;;;;22.13;20.37;;;4.90;99.90;;;;;;5049359;28;20628;-80
2022/03/25 02:40:41;;;;;;;22.03;20.03;;;5.20;99.90;;;;;;5051093;28;20664;-80
2022/03/25 02:43:09;;;;;;;24.30;22.10;;;5.10;99.90;;;;;;5048466;28;20636;-80
2022/03/25 02:45:38;;;;;;;22.70;20.63;;;5.00;99.90;;;;;;5051081;28;20674;-81
2022/03/25 02:48:07;;;;;;;23.50;21.37;;;5.20;99.90;;;;;;5047677;28;20642;-80
2022/03/25 02:50:34;;;;;;;21.83;19.97;;;5.00;99.90;;;;;;5039566;28;21234;-80
2022/03/25 02:53:03;;;;;;;21.70;19.80;;;4.90;99.90;;;;;;5047176;28;20635;-80
2022/03/25 02:55:30;;;;;;;21.73;19.83;;;4.90;99.90;;;;;;5053012;28;21017;-80
2022/03/25 02:57:58;;;;;;;23.20;21.10;;;5.00;99.90;;;;;;5049341;28;20627;-79
2022/03/25 03:00:26;;;;;;;23.43;21.40;;;4.60;99.90;;;;;;5046828;28;20656;-80
2022/03/25 03:02:53;;;;;;;22.50;20.60;;;4.70;99.90;;;;;;5046312;28;21288;-80
2022/03/25 03:05:21;;;;;;;22.63;20.80;;;4.70;99.90;;;;;;5042499;28;20670;-80
2022/03/25 03:07:48;;;;;;;23.53;21.53;;;4.70;99.90;;;;;;5048777;28;20956;-79
2022/03/25 03:10:15;;;;;;;23.70;21.60;;;4.70;99.90;;;;;;5050416;28;20692;-80
2022/03/25 03:12:42;;;;;;;23.30;21.30;;;4.80;99.90;;;;;;5047965;28;20992;-80
2022/03/25 03:15:13;;;;;;;22.47;20.47;;;4.80;99.90;;;;;;5043880;28;20637;-80
2022/03/25 03:17:40;;;;;;;22.80;21.00;;;4.80;99.90;;;;;;5044916;28;20625;-80
2022/03/25 03:20:08;;;;;;;23.77;21.63;;;4.60;99.90;;;;;;5048260;28;21299;-80
2022/03/25 03:22:35;;;;;;;22.43;20.53;;;4.80;99.90;;;;;;5051597;28;20629;-80
2022/03/25 03:25:02;;;;;;;21.87;19.97;;;4.50;99.90;;;;;;5048143;28;20667;-80
2022/03/25 03:27:28;;;;;;;24.23;22.03;;;4.60;99.90;;;;;;5048596;28;20635;-80
2022/03/25 03:29:56;;;;;;;22.67;20.57;;;4.50;99.90;;;;;;5047859;28;21690;-80
2022/03/25 03:32:25;;;;;;;23.47;21.30;;;4.60;99.90;;;;;;5045141;28;20615;-80
2022/03/25 03:34:53;;;;;;;24.37;22.10;;;4.60;99.90;;;;;;5043484;28;21123;-79
2022/03/25 03:37:20;;;;;;;22.80;20.80;;;3.90;99.90;;;;;;5049488;28;20624;-79
2022/03/25 03:39:47;;;;;;;24.17;21.90;;;4.50;99.90;;;;;;5048108;28;20662;-79
2022/03/25 03:42:14;;;;;;;23.50;21.53;;;3.90;99.90;;;;;;5047689;28;20635;-80
2022/03/25 03:44:41;;;;;;;21.73;19.93;;;4.10;99.90;;;;;;5047314;28;20677;-81
2022/03/25 03:47:09;;;;;;;23.03;21.10;;;4.20;99.90;;;;;;5045451;28;20653;-78
2022/03/25 03:49:37;;;;;;;23.50;21.40;;;3.80;99.90;;;;;;5042787;28;21007;-81
2022/03/25 03:52:05;;;;;;;22.57;20.67;;;4.20;99.90;;;;;;5048855;28;20975;-81
2022/03/25 03:54:33;;;;;;;23.03;21.07;;;4.30;99.90;;;;;;5052066;28;20908;-80
2022/03/25 03:57:00;;;;;;;23.13;20.93;;;4.20;99.90;;;;;;5049740;28;20620;-80
2022/03/25 03:59:27;;;;;;;22.73;20.73;;;4.20;99.90;;;;;;5050490;28;20622;-80
2022/03/25 04:01:54;;;;;;;23.00;20.90;;;4.20;99.90;;;;;;5047341;28;21038;-80
2022/03/25 04:04:21;;;;;;;24.00;21.80;;;4.00;99.90;;;;;;5046767;28;21183;-81
2022/03/25 04:06:49;;;;;;;25.43;23.33;;;4.00;99.90;;;;;;5049158;28;20650;-80
2022/03/25 04:09:16;;;;;;;22.23;20.47;;;4.20;99.90;;;;;;5050707;28;20617;-80
2022/03/25 04:11:43;;;;;;;23.63;21.63;;;4.00;99.90;;;;;;5046821;28;20658;-80
2022/03/25 04:14:10;;;;;;;23.70;21.70;;;4.00;99.90;;;;;;5043533;28;20644;-80
2022/03/25 04:16:39;;;;;;;22.83;20.97;;;3.90;99.90;;;;;;5050552;28;20629;-80
2022/03/25 04:19:06;;;;;;;23.83;21.73;;;3.90;99.90;;;;;;5051065;28;20686;-80
2022/03/25 04:21:33;;;;;;;23.57;21.67;;;3.80;99.90;;;;;;5054212;28;20664;-80
2022/03/25 04:24:01;;;;;;;24.13;21.93;;;3.70;99.90;;;;;;5053933;28;20622;-80
2022/03/25 04:26:28;;;;;;;23.60;21.57;;;4.20;99.90;;;;;;5046973;28;20999;-80
2022/03/25 04:28:55;;;;;;;25.13;22.70;;;3.80;99.90;;;;;;5051018;28;20662;-80
2022/03/25 04:31:21;;;;;;;23.30;21.20;;;3.40;99.90;;;;;;5050488;28;20630;-80
2022/03/25 04:33:48;;;;;;;23.80;21.73;;;3.90;99.90;;;;;;5047454;28;20625;-81
2022/03/25 04:36:15;;;;;;;23.60;21.33;;;3.90;99.90;;;;;;5047824;28;20635;-81
2022/03/25 04:38:42;;;;;;;23.57;21.37;;;3.50;99.90;;;;;;5050374;28;21039;-80
2022/03/25 04:41:10;;;;;;;23.20;21.20;;;3.90;99.90;;;;;;5047551;28;20649;-80
2022/03/25 04:43:37;;;;;;;26.37;24.17;;;3.90;99.90;;;;;;5051200;28;20654;-80
2022/03/25 04:46:04;;;;;;;25.83;23.53;;;3.70;99.90;;;;;;5054076;28;20671;-80
2022/03/25 04:48:32;;;;;;;25.27;22.87;;;3.80;99.90;;;;;;5049052;28;20662;-80
2022/03/25 04:50:59;;;;;;;26.30;23.77;;;3.70;99.90;;;;;;5057176;28;20618;-80
2022/03/25 04:53:26;;;;;;;24.30;22.10;;;3.80;99.90;;;;;;5051016;28;21158;-80
2022/03/25 04:55:53;;;;;;;25.07;22.83;;;3.60;99.90;;;;;;5053656;28;21578;-80
2022/03/25 04:58:21;;;;;;;26.60;24.10;;;3.30;99.90;;;;;;5051138;28;20654;-80
2022/03/25 05:00:50;;;;;;;28.17;25.67;;;3.70;99.90;;;;;;5049943;28;20638;-80
2022/03/25 05:03:17;;;;;;;27.93;25.20;;;3.70;99.90;;;;;;5048012;28;20634;-80
2022/03/25 05:05:44;;;;;;;26.63;24.40;;;3.70;99.90;;;;;;5049037;28;21207;-80
2022/03/25 05:08:11;;;;;;;27.60;25.10;;;3.80;99.90;;;;;;5053970;28;20661;-80
2022/03/25 05:10:38;;;;;;;27.07;24.67;;;3.50;99.90;;;;;;5048781;28;20634;-80
2022/03/25 05:13:05;;;;;;;27.83;25.33;;;3.60;99.90;;;;;;5053127;28;20716;-81
2022/03/25 05:15:33;;;;;;;27.23;24.97;;;3.60;99.90;;;;;;5047294;28;21014;-81
2022/03/25 05:18:00;;;;;;;26.63;24.33;;;3.50;99.90;;;;;;5051067;28;20677;-81
2022/03/25 05:20:27;;;;;;;26.97;24.77;;;3.60;99.90;;;;;;5047185;28;20647;-80
2022/03/25 05:22:53;;;;;;;25.03;22.93;;;3.60;99.90;;;;;;5047952;28;20632;-80
2022/03/25 05:25:22;;;;;;;25.03;22.97;;;3.50;99.90;;;;;;5055045;28;20666;-80
2022/03/25 05:27:51;;;;;;;24.70;22.60;;;3.50;99.90;;;;;;5050435;28;20991;-80
2022/03/25 05:30:20;;;;;;;25.27;22.97;;;3.60;99.90;;;;;;5048622;28;20642;-80
2022/03/25 05:32:49;;;;;;;25.57;23.20;;;2.90;99.90;;;;;;5049753;28;21167;-80
2022/03/25 05:35:16;;;;;;;24.23;22.13;;;3.50;99.90;;;;;;5048216;28;20653;-80
2022/03/25 05:37:43;;;;;;;25.47;23.20;;;3.60;99.90;;;;;;5046312;28;20727;-80
2022/03/25 05:40:12;;;;;;;24.93;22.63;;;3.10;99.90;;;;;;5046509;28;20623;-80
2022/03/25 05:42:39;;;;;;;25.77;23.17;;;3.30;99.90;;;;;;5049680;28;20634;-80
2022/03/25 05:45:08;;;;;;;27.07;24.10;;;3.20;99.90;;;;;;5049987;28;20631;-80
2022/03/25 05:47:36;;;;;;;25.83;23.60;;;3.20;99.90;;;;;;5051139;28;20799;-80
2022/03/25 05:50:06;;;;;;;25.40;23.13;;;3.20;99.90;;;;;;5052083;28;21051;-81
2022/03/25 05:52:32;;;;;;;25.50;23.20;;;3.50;99.90;;;;;;5047506;28;20631;-81
2022/03/25 05:54:59;;;;;;;26.83;24.00;;;3.70;99.90;;;;;;5049641;28;20977;-81
2022/03/25 05:57:26;;;;;;;25.60;23.40;;;3.50;99.90;;;;;;5050710;28;20650;-80
2022/03/25 05:59:52;;;;;;;27.03;24.07;;;3.50;99.90;;;;;;5048781;28;20630;-80
2022/03/25 06:02:19;;;;;;;24.67;22.37;;;3.20;99.90;;;;;;5050927;28;20622;-80
2022/03/25 06:04:46;;;;;;;26.80;24.40;;;3.70;99.90;;;;;;5046334;28;20647;-81
2022/03/25 06:07:14;;;;;;;27.10;24.33;;;3.70;99.90;;;;;;5052291;28;20673;-81
2022/03/25 06:09:41;;;;;;;25.93;23.53;;;3.60;99.90;;;;;;5036789;28;20634;-80
2022/03/25 06:12:08;;;;;;;24.77;22.57;;;3.60;99.90;;;;;;5048486;28;20633;-80
2022/03/25 06:14:36;;;;;;;27.07;24.60;;;3.80;99.90;;;;;;5049262;28;20734;-81
2022/03/25 06:17:03;;;;;;;27.10;24.80;;;3.80;99.90;;;;;;5046803;28;20642;-81
2022/03/25 06:19:30;;;;;;;27.27;25.07;;;3.60;99.90;;;;;;5036145;28;20632;-80
2022/03/25 06:21:56;;;;;;;26.30;23.90;;;3.50;99.90;;;;;;5051003;28;20625;-81
2022/03/25 06:24:25;;;;;;;25.57;23.20;;;4.20;99.90;;;;;;5039545;28;20631;-81
2022/03/25 06:26:52;;;;;;;27.50;25.10;;;4.30;99.90;;;;;;5046018;28;20670;-81
2022/03/25 06:29:19;;;;;;;27.77;25.37;;;3.90;99.90;;;;;;5048561;28;20688;-80
2022/03/25 06:31:46;;;;;;;30.97;26.57;;;4.30;99.90;;;;;;5040486;28;20990;-80
2022/03/25 06:34:14;;;;;;;28.67;26.23;;;4.50;99.90;;;;;;5045260;28;20630;-81
2022/03/25 06:36:41;;;;;;;27.43;25.07;;;4.50;99.90;;;;;;5049890;28;21171;-80
2022/03/25 06:39:09;;;;;;;29.17;26.27;;;4.50;99.90;;;;;;5049905;28;20687;-80
2022/03/25 06:41:37;;;;;;;27.83;25.33;;;4.70;99.90;;;;;;5048680;28;20638;-81
2022/03/25 06:44:04;;;;;;;26.23;23.83;;;5.00;99.90;;;;;;5046823;28;20650;-80
2022/03/25 06:46:31;;;;;;;27.03;24.43;;;4.70;99.90;;;;;;5049294;28;20668;-81
2022/03/25 06:48:58;;;;;;;26.57;24.30;;;4.40;99.90;;;;;;5046383;28;20755;-80
2022/03/25 06:51:26;;;;;;;26.70;24.27;;;5.20;99.90;;;;;;5049283;28;20637;-81
2022/03/25 06:53:53;;;;;;;24.97;22.73;;;5.30;99.90;;;;;;5049325;28;20632;-80
2022/03/25 06:56:20;;;;;;;23.67;21.50;;;5.30;99.90;;;;;;5048926;28;20626;-80
2022/03/25 06:58:49;;;;;;;25.63;23.43;;;5.60;99.90;;;;;;5050349;28;20652;-81
2022/03/25 07:01:16;;;;;;;26.60;24.00;;;5.10;99.90;;;;;;5046124;28;20636;-80
2022/03/25 07:03:44;;;;;;;25.87;23.20;;;5.90;99.90;;;;;;5048177;28;20732;-81
2022/03/25 07:06:11;;;;;;;26.67;24.27;;;5.30;99.90;;;;;;5048387;28;20672;-80
2022/03/25 07:08:40;;;;;;;26.07;23.73;;;5.80;99.90;;;;;;5046256;28;21244;-80
2022/03/25 07:11:07;;;;;;;24.10;22.00;;;6.00;99.90;;;;;;5045708;28;21510;-81
2022/03/25 07:13:34;;;;;;;26.67;24.00;;;6.00;99.90;;;;;;5040367;28;20677;-81
2022/03/25 07:16:03;;;;;;;26.50;23.80;;;6.10;99.90;;;;;;5046982;28;20625;-80
2022/03/25 07:18:30;;;;;;;27.40;25.10;;;6.10;99.90;;;;;;5048614;28;20662;-81
2022/03/25 07:20:59;;;;;;;25.00;22.70;;;6.10;99.40;;;;;;5048628;28;20629;-81
2022/03/25 07:23:26;;;;;;;26.90;24.23;;;6.10;99.20;;;;;;5046863;28;20634;-80
2022/03/25 07:25:53;;;;;;;26.40;24.20;;;6.50;99.00;;;;;;5048665;28;20673;-81
2022/03/25 07:28:19;;;;;;;25.13;22.93;;;6.50;98.50;;;;;;5048392;28;20656;-80
2022/03/25 07:30:46;;;;;;;26.10;23.70;;;6.50;98.20;;;;;;5052839;28;21026;-80
2022/03/25 07:33:14;;;;;;;27.37;24.80;;;6.40;97.80;;;;;;5049520;28;20665;-80
2022/03/25 07:35:41;;;;;;;26.97;24.03;;;6.50;97.70;;;;;;5044192;28;20640;-80
2022/03/25 07:38:09;;;;;;;27.50;24.77;;;6.80;97.90;;;;;;5051095;28;20990;-80
2022/03/25 07:40:36;;;;;;;27.43;24.63;;;6.90;96.80;;;;;;5050986;28;20648;-80
2022/03/25 07:43:03;;;;;;;25.63;23.40;;;7.20;96.70;;;;;;5044518;28;20997;-80
2022/03/25 07:45:30;;;;;;;25.60;23.37;;;7.80;96.40;;;;;;5048955;28;20722;-81
2022/03/25 07:47:56;;;;;;;26.87;24.17;;;7.30;96.00;;;;;;5050496;28;21232;-80
2022/03/25 07:50:25;;;;;;;26.20;23.90;;;7.60;95.60;;;;;;5048439;28;20633;-80
2022/03/25 07:52:53;;;;;;;26.27;23.67;;;7.80;95.50;;;;;;5049165;28;20726;-80
2022/03/25 07:55:20;;;;;;;27.23;24.63;;;8.10;95.40;;;;;;5048872;28;20626;-80
2022/03/25 07:57:48;;;;;;;26.80;24.40;;;7.70;94.90;;;;;;5038570;28;20649;-80
2022/03/25 08:00:16;;;;;;;26.60;23.80;;;7.90;94.70;;;;;;5045354;28;20669;-80
2022/03/25 08:02:45;;;;;;;26.27;23.40;;;8.40;94.50;;;;;;5049621;28;20686;-80
2022/03/25 08:05:14;;;;;;;26.77;23.47;;;8.10;94.20;;;;;;5048238;28;20636;-80
2022/03/25 08:07:48;;;;;;;28.13;25.23;;;8.70;94.30;;;;;;5048275;28;21259;-80
2022/03/25 08:10:18;;;;;;;29.53;26.30;;;8.80;94.10;;;;;;5045938;28;20706;-80
2022/03/25 08:12:45;;;;;;;25.73;23.40;;;8.60;93.80;;;;;;5048790;28;20634;-80
2022/03/25 08:15:13;;;;;;;27.40;24.50;;;9.00;93.70;;;;;;5039438;28;20630;-80
2022/03/25 08:17:48;;;;;;;27.93;25.10;;;8.80;93.30;;;;;;5048319;28;20664;-80
2022/03/25 08:20:19;;;;;;;27.10;24.40;;;9.20;93.00;;;;;;5041172;28;20640;-80
2022/03/25 08:22:47;;;;;;;25.10;22.40;;;9.10;92.80;;;;;;5047518;28;20988;-81
2022/03/25 08:28:01;;;;;;;25.10;22.60;;;9.60;91.90;;;;;;5038346;28;20721;-80
2022/03/25 08:30:28;;;;;;;25.47;22.73;;;9.50;91.80;;;;;;5045022;28;20632;-81
2022/03/25 08:32:56;;;;;;;26.63;23.17;;;9.70;91.80;;;;;;5048561;28;20617;-81
2022/03/25 08:35:23;;;;;;;25.17;22.47;;;9.70;91.10;;;;;;5053352;28;20644;-81
2022/03/25 08:37:53;;;;;;;26.37;23.73;;;9.80;91.10;;;;;;5049197;28;20641;-81
2022/03/25 08:40:20;;;;;;;26.97;23.60;;;9.90;90.90;;;;;;5047668;28;20750;-81
2022/03/25 08:42:46;;;;;;;27.67;24.73;;;10.30;90.20;;;;;;5050367;28;20628;-81
2022/03/25 08:45:15;;;;;;;33.07;24.10;;;10.10;89.80;;;;;;5046627;28;20629;-81
2022/03/25 08:47:42;;;;;;;26.57;23.10;;;10.50;89.50;;;;;;5048073;28;21359;-81
2022/03/25 08:50:09;;;;;;;25.80;23.20;;;10.70;89.80;;;;;;5046896;28;20641;-81
2022/03/25 08:52:36;;;;;;;26.47;23.73;;;10.90;88.90;;;;;;5049646;28;20638;-81
2022/03/25 08:55:06;;;;;;;27.03;24.20;;;10.60;88.20;;;;;;5045848;28;20638;-80
2022/03/25 08:57:33;;;;;;;32.60;23.40;;;11.00;88.00;;;;;;5048109;28;20653;-81
2022/03/25 08:59:59;;;;;;;26.50;23.70;;;11.10;87.50;;;;;;5049408;28;20621;-81
2022/03/25 09:02:26;;;;;;;27.93;24.00;;;11.20;87.20;;;;;;5043773;28;20625;-81
2022/03/25 09:04:53;;;;;;;27.73;24.73;;;11.40;86.90;;;;;;5052926;28;20636;-81
2022/03/25 09:07:19;;;;;;;27.30;22.93;;;11.50;86.30;;;;;;5051959;28;20964;-81
2022/03/25 09:09:47;;;;;;;27.13;24.30;;;11.60;85.70;;;;;;5051794;28;20632;-81
2022/03/25 09:12:15;;;;;;;26.87;23.33;;;11.70;85.10;;;;;;5050913;28;21050;-80
2022/03/25 09:14:42;;;;;;;27.90;23.37;;;11.80;85.50;;;;;;5053719;28;20618;-80
2022/03/25 09:17:09;;;;;;;27.17;24.23;;;11.80;85.00;;;;;;5051722;28;20657;-80
2022/03/25 09:19:35;;;;;;;26.40;22.97;;;11.90;84.70;;;;;;5048582;28;20724;-80
2022/03/25 09:22:02;;;;;;;25.90;22.77;;;12.10;84.50;;;;;;5050917;28;20629;-80
2022/03/25 09:24:29;;;;;;;29.43;24.27;;;12.20;83.50;;;;;;5046706;28;20683;-82
2022/03/25 09:26:56;;;;;;;27.80;25.00;;;12.30;83.30;;;;;;5052756;28;20743;-81
2022/03/25 09:29:25;;;;;;;34.73;26.60;;;12.50;83.30;;;;;;5054360;28;20640;-81
2022/03/25 09:31:52;;;;;;;24.67;21.87;;;12.60;82.60;;;;;;5046620;28;20630;-81
2022/03/25 09:37:03;;;;;;;28.27;24.90;;;12.90;81.70;;;;;;5048923;28;20616;-81
2022/03/25 09:39:30;;;;;;;31.80;26.03;;;13.00;80.20;;;;;;5049664;28;20626;-82
2022/03/25 09:41:58;;;;;;;27.37;24.27;;;13.10;79.90;;;;;;5053351;28;20628;-81
2022/03/25 09:44:26;;;;;;;30.00;26.90;;;13.30;79.80;;;;;;5050757;28;20675;-81
2022/03/25 09:46:53;;;;;;;28.93;25.43;;;13.50;78.40;;;;;;5049854;28;20673;-81
2022/03/25 09:49:20;;;;;;;30.23;27.13;;;13.50;77.50;;;;;;5055811;28;21251;-81
2022/03/25 09:51:46;;;;;;;28.93;25.67;;;13.70;76.30;;;;;;5048807;28;21205;-81
2022/03/25 09:54:16;;;;;;;28.63;25.60;;;13.80;75.70;;;;;;5051458;28;20663;-81
2022/03/25 09:56:44;;;;;;;36.03;26.87;;;14.00;76.00;;;;;;5055810;28;20630;-81
2022/03/25 09:59:15;;;;;;;28.57;24.07;;;14.10;75.20;;;;;;5046950;28;20633;-81
2022/03/25 10:01:44;;;;;;;30.90;27.47;;;14.30;75.40;;;;;;5051320;28;20617;-81
2022/03/25 10:04:51;;;;;;;33.20;26.17;;;14.60;74.50;;;;;;5049729;28;20621;-81
2022/03/25 10:07:20;;;;;;;29.17;26.07;;;14.80;74.10;;;;;;5046347;28;20689;-81
2022/03/25 10:09:48;;;;;;;32.80;27.70;;;14.90;73.40;;;;;;5053875;28;21135;-81
2022/03/25 10:12:26;;;;;;;32.17;26.60;;;15.20;72.70;;;;;;5051911;28;20640;-81
2022/03/25 10:15:10;;;;;;;27.83;22.00;;;15.50;71.80;;;;;;5049673;28;20979;-81
2022/03/25 10:17:47;;;;;;;32.60;27.30;;;15.70;71.00;;;;;;5049326;28;20653;-81
2022/03/25 10:20:14;;;;;;;27.53;24.67;;;16.00;70.90;;;;;;5043930;28;20625;-81
2022/03/25 10:22:56;;;;;;;28.80;25.67;;;16.30;71.40;;;;;;5048784;28;20683;-81
2022/03/25 10:25:33;;;;;;;32.53;27.60;;;16.50;69.90;;;;;;5040378;28;20630;-81
2022/03/25 10:28:00;;;;;;;32.93;26.97;;;16.90;68.50;;;;;;5047925;28;20708;-82
2022/03/25 10:30:36;;;;;;;31.97;26.37;;;17.20;67.80;;;;;;5047454;28;20626;-81
2022/03/25 10:33:10;;;;;;;30.00;26.90;;;17.50;67.70;;;;;;5047087;28;20632;-81
2022/03/25 10:35:55;;;;;;;34.40;25.97;;;17.70;67.20;;;;;;5046443;28;20633;-81
2022/03/25 10:38:22;;;;;;;30.53;26.60;;;18.00;67.10;;;;;;5048506;28;20995;-81
2022/03/25 10:40:50;;;;;;;27.07;24.17;;;18.20;65.90;;;;;;5046758;28;20695;-81
2022/03/25 10:43:17;;;;;;;27.03;24.03;;;18.40;62.20;;;;;;5050985;28;20665;-81
2022/03/25 10:45:45;;;;;;;27.40;24.50;;;18.60;60.30;;;;;;5050427;28;21268;-81
2022/03/25 10:48:16;;;;;;;26.20;23.40;;;18.90;53.80;;;;;;5045253;28;20849;-81
2022/03/25 10:50:57;;;;;;;34.60;26.73;;;19.10;54.50;;;;;;5042342;28;21208;-81
2022/03/25 10:53:24;;;;;;;31.43;25.70;;;19.40;56.70;;;;;;5046428;28;20632;-81
2022/03/25 10:55:55;;;;;;;27.57;24.77;;;19.70;56.70;;;;;;5050370;28;20634;-81
2022/03/25 10:58:22;;;;;;;26.63;23.57;;;20.10;55.40;;;;;;5049585;28;20658;-81
2022/03/25 11:00:49;;;;;;;26.97;24.33;;;20.50;52.20;;;;;;5046809;28;20657;-81
2022/03/25 11:03:18;;;;;;;26.87;24.17;;;20.60;48.50;;;;;;5050277;28;20636;-81
2022/03/25 11:05:46;;;;;;;26.33;23.77;;;20.80;48.50;;;;;;5048823;28;20633;-81
2022/03/25 11:08:13;;;;;;;26.23;23.73;;;21.10;48.50;;;;;;5049758;28;21237;-81
2022/03/25 11:10:40;;;;;;;28.43;25.67;;;21.40;48.00;;;;;;5047417;28;20672;-80
2022/03/25 11:13:08;;;;;;;27.27;24.63;;;21.60;47.10;;;;;;5046940;28;21003;-80
2022/03/25 11:15:37;;;;;;;27.87;25.17;;;21.90;47.10;;;;;;5046903;28;20626;-80
2022/03/25 11:18:04;;;;;;;24.93;22.50;;;22.40;46.10;;;;;;5046657;28;20681;-81
2022/03/25 11:20:32;;;;;;;26.67;24.37;;;22.60;45.50;;;;;;5045218;28;20729;-81
2022/03/25 11:23:06;;;;;;;27.70;25.10;;;22.70;44.00;;;;;;5045535;28;20633;-80
2022/03/25 11:25:38;;;;;;;26.53;23.93;;;23.00;44.70;;;;;;5048564;28;20704;-81
2022/03/25 11:28:08;;;;;;;26.83;24.47;;;23.40;44.30;;;;;;5045952;28;20685;-80
2022/03/25 11:30:36;;;;;;;27.47;24.67;;;23.70;43.80;;;;;;5046140;28;20638;-80
2022/03/25 11:33:06;;;;;;;28.00;25.40;;;24.00;41.90;;;;;;5046129;28;20712;-82
2022/03/25 11:35:36;;;;;;;26.20;23.80;;;24.30;41.90;;;;;;5046705;28;21066;-80
2022/03/25 11:38:19;;;;;;;27.83;25.20;;;24.60;42.00;;;;;;5047696;28;20650;-81
2022/03/25 11:40:48;;;;;;;26.17;23.80;;;24.90;41.10;;;;;;5026716;28;20948;-81
2022/03/25 11:43:16;;;;;;;26.00;23.60;;;25.00;39.90;;;;;;5043722;28;20645;-82
2022/03/25 11:45:43;;;;;;;26.63;24.17;;;25.40;38.70;;;;;;5049403;28;20657;-81
2022/03/25 11:48:33;;;;;;;27.67;25.03;;;25.50;38.00;;;;;;5041508;28;21021;-81
2022/03/25 11:51:02;;;;;;;28.93;25.97;;;25.70;38.90;;;;;;5039817;28;20629;-81
2022/03/25 11:53:33;;;;;;;29.80;26.90;;;25.50;37.70;;;;;;5046961;28;21227;-81
2022/03/25 11:56:02;;;;;;;28.60;26.10;;;25.60;38.50;;;;;;5046981;28;20999;-81
2022/03/25 11:58:31;;;;;;;28.53;25.87;;;25.80;37.50;;;;;;5046092;28;20684;-81
2022/03/25 12:01:03;;;;;;;28.67;26.17;;;25.90;36.90;;;;;;5045668;28;20645;-81
2022/03/25 12:03:44;;;;;;;27.30;25.00;;;26.30;36.80;;;;;;5046874;28;20641;-81
2022/03/25 12:06:12;;;;;;;27.27;24.67;;;26.40;35.10;;;;;;5043321;28;20614;-81
2022/03/25 12:08:39;;;;;;;25.73;23.57;;;26.80;35.10;;;;;;5042254;28;20712;-81
2022/03/25 12:11:08;;;;;;;28.03;25.33;;;27.10;34.80;;;;;;5047941;28;20724;-81
2022/03/25 12:14:05;;;;;;;26.50;24.20;;;27.40;34.00;;;;;;5048048;28;20684;-81
2022/03/25 12:16:54;;;;;;;23.97;22.17;;;27.60;33.90;;;;;;5048477;28;20629;-81
2022/03/25 12:19:53;;;;;;;24.37;22.47;;;27.90;33.10;;;;;;5046365;28;20630;-81
2022/03/25 12:22:41;;;;;;;26.10;23.70;;;28.30;32.20;;;;;;5046528;28;20622;-80
2022/03/25 12:25:20;;;;;;;27.97;25.70;;;28.30;31.60;;;;;;5048398;28;20657;-81
2022/03/25 12:27:47;;;;;;;28.23;25.43;;;28.40;30.90;;;;;;5045936;28;20665;-81
2022/03/25 12:30:14;;;;;;;27.93;25.67;;;28.20;31.30;;;;;;5050557;28;20647;-81
2022/03/25 12:32:42;;;;;;;25.87;23.73;;;28.70;31.00;;;;;;5048783;28;20731;-81
2022/03/25 12:35:13;;;;;;;29.80;27.23;;;28.70;30.70;;;;;;5051389;28;20633;-81
2022/03/25 12:38:11;;;;;;;29.10;26.80;;;29.00;31.40;;;;;;5050250;28;20659;-81
2022/03/25 12:40:38;;;;;;;27.03;24.33;;;29.00;31.50;;;;;;5050322;28;20624;-81
2022/03/25 12:43:08;;;;;;;28.90;26.53;;;29.00;31.60;;;;;;5055341;28;20633;-81
2022/03/25 12:45:36;;;;;;;28.03;25.63;;;29.50;31.30;;;;;;5052130;28;20820;-81